sensor_id;sensor_type;location;lat;lon;timestamp;P1;durP1;ratioP1;P2;durP2;ratioP2
53040;SDS011;39326;42.650;23.248;2023-06-04T00:02:06;22.17;;;20.07;;
53040;SDS011;39326;42.650;23.248;2023-06-04T00:04:31;23.13;;;20.97;;
53040;SDS011;39326;42.650;23.248;2023-06-04T00:06:56;22.07;;;20.17;;
53040;SDS011;39326;42.650;23.248;2023-06-04T00:09:22;22.33;;;20.33;;
53040;SDS011;39326;42.650;23.248;2023-06-04T00:11:47;22.37;;;20.00;;
53040;SDS011;39326;42.650;23.248;2023-06-04T00:14:13;21.93;;;19.97;;
53040;SDS011;39326;42.650;23.248;2023-06-04T00:16:40;20.40;;;18.50;;
53040;SDS011;39326;42.650;23.248;2023-06-04T00:19:05;20.10;;;18.40;;
53040;SDS011;39326;42.650;23.248;2023-06-04T00:21:31;20.03;;;18.33;;
53040;SDS011;39326;42.650;23.248;2023-06-04T00:23:57;20.97;;;19.20;;
53040;SDS011;39326;42.650;23.248;2023-06-04T00:26:22;19.13;;;17.53;;
53040;SDS011;39326;42.650;23.248;2023-06-04T00:28:48;20.20;;;18.45;;
53040;SDS011;39326;42.650;23.248;2023-06-04T00:31:13;20.60;;;18.70;;
53040;SDS011;39326;42.650;23.248;2023-06-04T00:33:39;21.80;;;19.70;;
53040;SDS011;39326;42.650;23.248;2023-06-04T00:36:05;21.67;;;19.77;;
53040;SDS011;39326;42.650;23.248;2023-06-04T00:38:30;22.53;;;20.53;;
53040;SDS011;39326;42.650;23.248;2023-06-04T00:40:55;20.60;;;18.83;;
53040;SDS011;39326;42.650;23.248;2023-06-04T00:43:21;21.57;;;19.70;;
53040;SDS011;39326;42.650;23.248;2023-06-04T00:45:50;21.77;;;19.77;;
53040;SDS011;39326;42.650;23.248;2023-06-04T00:48:17;22.27;;;20.10;;
53040;SDS011;39326;42.650;23.248;2023-06-04T00:50:43;21.37;;;19.47;;
53040;SDS011;39326;42.650;23.248;2023-06-04T00:53:09;22.43;;;20.40;;
53040;SDS011;39326;42.650;23.248;2023-06-04T00:55:35;21.07;;;19.17;;
53040;SDS011;39326;42.650;23.248;2023-06-04T00:58:01;20.87;;;19.03;;
53040;SDS011;39326;42.650;23.248;2023-06-04T01:00:29;20.37;;;18.70;;
53040;SDS011;39326;42.650;23.248;2023-06-04T01:02:55;20.57;;;18.80;;
53040;SDS011;39326;42.650;23.248;2023-06-04T01:05:29;18.33;;;16.73;;
53040;SDS011;39326;42.650;23.248;2023-06-04T01:08:04;20.07;;;18.47;;
53040;SDS011;39326;42.650;23.248;2023-06-04T01:10:33;19.17;;;17.33;;
53040;SDS011;39326;42.650;23.248;2023-06-04T01:12:59;20.07;;;18.37;;
53040;SDS011;39326;42.650;23.248;2023-06-04T01:15:25;20.07;;;18.37;;
53040;SDS011;39326;42.650;23.248;2023-06-04T01:17:51;20.50;;;18.70;;
53040;SDS011;39326;42.650;23.248;2023-06-04T01:23:23;19.67;;;17.98;;
53040;SDS011;39326;42.650;23.248;2023-06-04T01:25:58;19.40;;;17.57;;
53040;SDS011;39326;42.650;23.248;2023-06-04T01:28:27;20.52;;;18.73;;
53040;SDS011;39326;42.650;23.248;2023-06-04T01:30:54;20.57;;;18.77;;
53040;SDS011;39326;42.650;23.248;2023-06-04T01:33:21;20.60;;;18.77;;
53040;SDS011;39326;42.650;23.248;2023-06-04T01:35:47;19.80;;;18.10;;
53040;SDS011;39326;42.650;23.248;2023-06-04T01:38:14;21.77;;;19.87;;
53040;SDS011;39326;42.650;23.248;2023-06-04T01:40:40;20.83;;;18.83;;
53040;SDS011;39326;42.650;23.248;2023-06-04T01:43:06;18.38;;;16.88;;
53040;SDS011;39326;42.650;23.248;2023-06-04T01:45:31;19.33;;;17.63;;
53040;SDS011;39326;42.650;23.248;2023-06-04T01:47:57;18.60;;;17.03;;
53040;SDS011;39326;42.650;23.248;2023-06-04T01:50:23;19.40;;;17.70;;
53040;SDS011;39326;42.650;23.248;2023-06-04T01:52:48;18.43;;;16.83;;
53040;SDS011;39326;42.650;23.248;2023-06-04T01:55:15;17.90;;;16.27;;
53040;SDS011;39326;42.650;23.248;2023-06-04T01:57:42;17.20;;;15.60;;
53040;SDS011;39326;42.650;23.248;2023-06-04T02:00:09;15.73;;;13.83;;
53040;SDS011;39326;42.650;23.248;2023-06-04T02:02:37;14.73;;;13.50;;
53040;SDS011;39326;42.650;23.248;2023-06-04T02:05:05;13.10;;;12.00;;
53040;SDS011;39326;42.650;23.248;2023-06-04T02:07:34;12.20;;;11.10;;
53040;SDS011;39326;42.650;23.248;2023-06-04T02:10:00;10.60;;;9.67;;
53040;SDS011;39326;42.650;23.248;2023-06-04T02:12:25;10.80;;;9.90;;
53040;SDS011;39326;42.650;23.248;2023-06-04T02:14:51;10.53;;;9.67;;
53040;SDS011;39326;42.650;23.248;2023-06-04T02:17:16;9.60;;;8.80;;
53040;SDS011;39326;42.650;23.248;2023-06-04T02:19:42;9.20;;;8.40;;
53040;SDS011;39326;42.650;23.248;2023-06-04T02:22:15;10.20;;;9.30;;
53040;SDS011;39326;42.650;23.248;2023-06-04T02:24:42;10.13;;;9.33;;
53040;SDS011;39326;42.650;23.248;2023-06-04T02:27:07;11.57;;;10.60;;
53040;SDS011;39326;42.650;23.248;2023-06-04T02:29:33;10.13;;;9.33;;
53040;SDS011;39326;42.650;23.248;2023-06-04T02:31:59;12.13;;;10.93;;
53040;SDS011;39326;42.650;23.248;2023-06-04T02:34:25;12.67;;;11.43;;
53040;SDS011;39326;42.650;23.248;2023-06-04T02:36:50;11.60;;;10.70;;
53040;SDS011;39326;42.650;23.248;2023-06-04T02:39:19;12.07;;;10.90;;
53040;SDS011;39326;42.650;23.248;2023-06-04T02:41:45;11.67;;;10.50;;
53040;SDS011;39326;42.650;23.248;2023-06-04T02:44:11;11.80;;;10.77;;
53040;SDS011;39326;42.650;23.248;2023-06-04T02:46:36;10.70;;;9.70;;
53040;SDS011;39326;42.650;23.248;2023-06-04T02:49:02;9.70;;;9.00;;
53040;SDS011;39326;42.650;23.248;2023-06-04T02:51:28;9.50;;;8.70;;
53040;SDS011;39326;42.650;23.248;2023-06-04T02:53:53;8.67;;;7.87;;
53040;SDS011;39326;42.650;23.248;2023-06-04T02:56:19;8.90;;;8.20;;
53040;SDS011;39326;42.650;23.248;2023-06-04T02:58:48;9.10;;;7.40;;
53040;SDS011;39326;42.650;23.248;2023-06-04T03:01:25;7.83;;;7.13;;
53040;SDS011;39326;42.650;23.248;2023-06-04T03:03:52;8.40;;;5.90;;
53040;SDS011;39326;42.650;23.248;2023-06-04T03:06:18;6.73;;;6.23;;
53040;SDS011;39326;42.650;23.248;2023-06-04T03:08:46;7.20;;;6.60;;
53040;SDS011;39326;42.650;23.248;2023-06-04T03:11:12;6.47;;;5.97;;
53040;SDS011;39326;42.650;23.248;2023-06-04T03:13:38;6.70;;;6.10;;
53040;SDS011;39326;42.650;23.248;2023-06-04T03:16:04;6.37;;;5.87;;
53040;SDS011;39326;42.650;23.248;2023-06-04T03:18:35;5.97;;;5.57;;
53040;SDS011;39326;42.650;23.248;2023-06-04T03:21:02;5.67;;;5.23;;
53040;SDS011;39326;42.650;23.248;2023-06-04T03:23:28;5.27;;;4.93;;
53040;SDS011;39326;42.650;23.248;2023-06-04T03:25:53;5.80;;;5.30;;
53040;SDS011;39326;42.650;23.248;2023-06-04T03:28:19;6.00;;;4.90;;
53040;SDS011;39326;42.650;23.248;2023-06-04T03:30:45;5.20;;;4.70;;
53040;SDS011;39326;42.650;23.248;2023-06-04T03:33:10;5.30;;;4.90;;
53040;SDS011;39326;42.650;23.248;2023-06-04T03:35:35;4.73;;;4.23;;
53040;SDS011;39326;42.650;23.248;2023-06-04T03:38:01;4.80;;;4.33;;
53040;SDS011;39326;42.650;23.248;2023-06-04T03:40:26;4.43;;;4.13;;
53040;SDS011;39326;42.650;23.248;2023-06-04T03:42:52;4.23;;;3.93;;
53040;SDS011;39326;42.650;23.248;2023-06-04T03:45:17;4.40;;;4.10;;
53040;SDS011;39326;42.650;23.248;2023-06-04T03:47:42;4.73;;;4.33;;
53040;SDS011;39326;42.650;23.248;2023-06-04T03:50:08;4.15;;;3.75;;
53040;SDS011;39326;42.650;23.248;2023-06-04T03:52:33;3.63;;;3.43;;
53040;SDS011;39326;42.650;23.248;2023-06-04T03:54:59;3.47;;;3.17;;
53040;SDS011;39326;42.650;23.248;2023-06-04T03:57:25;3.40;;;3.20;;
53040;SDS011;39326;42.650;23.248;2023-06-04T03:59:50;3.80;;;3.50;;
53040;SDS011;39326;42.650;23.248;2023-06-04T04:02:16;3.60;;;3.30;;
53040;SDS011;39326;42.650;23.248;2023-06-04T04:04:44;3.77;;;3.47;;
53040;SDS011;39326;42.650;23.248;2023-06-04T04:07:09;4.10;;;3.80;;
53040;SDS011;39326;42.650;23.248;2023-06-04T04:09:35;3.90;;;3.60;;
53040;SDS011;39326;42.650;23.248;2023-06-04T04:12:01;6.17;;;5.17;;
53040;SDS011;39326;42.650;23.248;2023-06-04T04:14:27;4.80;;;4.40;;
53040;SDS011;39326;42.650;23.248;2023-06-04T04:16:52;5.70;;;4.00;;
53040;SDS011;39326;42.650;23.248;2023-06-04T04:19:18;4.90;;;4.50;;
53040;SDS011;39326;42.650;23.248;2023-06-04T04:21:43;4.90;;;4.40;;
53040;SDS011;39326;42.650;23.248;2023-06-04T04:24:08;4.80;;;4.40;;
53040;SDS011;39326;42.650;23.248;2023-06-04T04:26:34;4.87;;;4.53;;
53040;SDS011;39326;42.650;23.248;2023-06-04T04:29:00;5.43;;;4.00;;
53040;SDS011;39326;42.650;23.248;2023-06-04T04:31:26;4.60;;;4.20;;
53040;SDS011;39326;42.650;23.248;2023-06-04T04:33:52;5.30;;;4.73;;
53040;SDS011;39326;42.650;23.248;2023-06-04T04:36:17;4.40;;;4.10;;
53040;SDS011;39326;42.650;23.248;2023-06-04T04:38:46;4.83;;;4.40;;
53040;SDS011;39326;42.650;23.248;2023-06-04T04:41:11;5.37;;;4.87;;
53040;SDS011;39326;42.650;23.248;2023-06-04T04:43:37;5.60;;;5.20;;
53040;SDS011;39326;42.650;23.248;2023-06-04T04:46:06;7.03;;;5.90;;
53040;SDS011;39326;42.650;23.248;2023-06-04T04:48:32;5.80;;;5.37;;
53040;SDS011;39326;42.650;23.248;2023-06-04T04:50:58;5.73;;;5.00;;
53040;SDS011;39326;42.650;23.248;2023-06-04T04:53:23;5.30;;;4.80;;
53040;SDS011;39326;42.650;23.248;2023-06-04T04:55:51;5.27;;;4.77;;
53040;SDS011;39326;42.650;23.248;2023-06-04T04:58:16;5.70;;;4.83;;
53040;SDS011;39326;42.650;23.248;2023-06-04T05:00:42;4.87;;;4.47;;
53040;SDS011;39326;42.650;23.248;2023-06-04T05:03:07;5.07;;;4.67;;
53040;SDS011;39326;42.650;23.248;2023-06-04T05:05:33;5.63;;;5.13;;
53040;SDS011;39326;42.650;23.248;2023-06-04T05:07:58;4.87;;;4.30;;
53040;SDS011;39326;42.650;23.248;2023-06-04T05:10:24;5.30;;;4.80;;
53040;SDS011;39326;42.650;23.248;2023-06-04T05:12:57;5.07;;;4.40;;
53040;SDS011;39326;42.650;23.248;2023-06-04T05:15:24;5.93;;;5.20;;
53040;SDS011;39326;42.650;23.248;2023-06-04T05:17:51;5.50;;;5.10;;
53040;SDS011;39326;42.650;23.248;2023-06-04T05:20:18;5.83;;;5.30;;
53040;SDS011;39326;42.650;23.248;2023-06-04T05:22:47;6.83;;;4.83;;
53040;SDS011;39326;42.650;23.248;2023-06-04T05:25:13;6.20;;;5.70;;
53040;SDS011;39326;42.650;23.248;2023-06-04T05:27:39;5.57;;;5.07;;
53040;SDS011;39326;42.650;23.248;2023-06-04T05:30:05;6.77;;;6.03;;
53040;SDS011;39326;42.650;23.248;2023-06-04T05:32:32;5.93;;;5.53;;
53040;SDS011;39326;42.650;23.248;2023-06-04T05:34:58;6.53;;;5.93;;
53040;SDS011;39326;42.650;23.248;2023-06-04T05:37:24;6.57;;;6.07;;
53040;SDS011;39326;42.650;23.248;2023-06-04T05:39:56;5.87;;;5.33;;
53040;SDS011;39326;42.650;23.248;2023-06-04T05:42:22;6.27;;;5.77;;
53040;SDS011;39326;42.650;23.248;2023-06-04T05:44:48;5.93;;;5.53;;
53040;SDS011;39326;42.650;23.248;2023-06-04T05:47:15;6.17;;;5.57;;
53040;SDS011;39326;42.650;23.248;2023-06-04T05:49:41;6.07;;;5.47;;
53040;SDS011;39326;42.650;23.248;2023-06-04T05:52:07;6.20;;;5.70;;
53040;SDS011;39326;42.650;23.248;2023-06-04T05:54:32;7.07;;;6.40;;
53040;SDS011;39326;42.650;23.248;2023-06-04T05:56:58;6.73;;;6.13;;
53040;SDS011;39326;42.650;23.248;2023-06-04T05:59:23;6.87;;;6.17;;
53040;SDS011;39326;42.650;23.248;2023-06-04T06:01:49;7.00;;;6.03;;
53040;SDS011;39326;42.650;23.248;2023-06-04T06:04:15;8.07;;;7.07;;
53040;SDS011;39326;42.650;23.248;2023-06-04T06:06:41;6.63;;;5.93;;
53040;SDS011;39326;42.650;23.248;2023-06-04T06:09:09;7.20;;;6.63;;
53040;SDS011;39326;42.650;23.248;2023-06-04T06:11:35;6.53;;;5.93;;
53040;SDS011;39326;42.650;23.248;2023-06-04T06:14:01;8.37;;;7.50;;
53040;SDS011;39326;42.650;23.248;2023-06-04T06:16:26;8.17;;;7.37;;
53040;SDS011;39326;42.650;23.248;2023-06-04T06:18:52;7.23;;;6.53;;
53040;SDS011;39326;42.650;23.248;2023-06-04T06:21:17;8.37;;;7.53;;
53040;SDS011;39326;42.650;23.248;2023-06-04T06:23:43;9.20;;;8.20;;
53040;SDS011;39326;42.650;23.248;2023-06-04T06:26:08;7.80;;;7.10;;
53040;SDS011;39326;42.650;23.248;2023-06-04T06:28:34;7.70;;;7.00;;
53040;SDS011;39326;42.650;23.248;2023-06-04T06:31:01;8.13;;;7.23;;
53040;SDS011;39326;42.650;23.248;2023-06-04T06:33:27;9.30;;;8.40;;
53040;SDS011;39326;42.650;23.248;2023-06-04T06:35:52;10.20;;;8.80;;
53040;SDS011;39326;42.650;23.248;2023-06-04T06:38:17;10.03;;;9.07;;
53040;SDS011;39326;42.650;23.248;2023-06-04T06:40:43;11.10;;;10.00;;
53040;SDS011;39326;42.650;23.248;2023-06-04T06:43:08;10.77;;;8.97;;
53040;SDS011;39326;42.650;23.248;2023-06-04T06:45:35;10.70;;;9.67;;
53040;SDS011;39326;42.650;23.248;2023-06-04T06:48:01;9.50;;;8.70;;
53040;SDS011;39326;42.650;23.248;2023-06-04T06:50:26;10.75;;;9.55;;
53040;SDS011;39326;42.650;23.248;2023-06-04T06:52:52;8.43;;;7.47;;
53040;SDS011;39326;42.650;23.248;2023-06-04T06:55:17;9.13;;;8.33;;
53040;SDS011;39326;42.650;23.248;2023-06-04T06:57:43;11.80;;;10.07;;
53040;SDS011;39326;42.650;23.248;2023-06-04T07:00:08;10.70;;;9.80;;
53040;SDS011;39326;42.650;23.248;2023-06-04T07:02:34;10.73;;;9.83;;
53040;SDS011;39326;42.650;23.248;2023-06-04T07:04:59;10.23;;;9.33;;
53040;SDS011;39326;42.650;23.248;2023-06-04T07:07:25;11.23;;;10.20;;
53040;SDS011;39326;42.650;23.248;2023-06-04T07:09:51;10.90;;;9.50;;
53040;SDS011;39326;42.650;23.248;2023-06-04T07:12:17;12.00;;;9.73;;
53040;SDS011;39326;42.650;23.248;2023-06-04T07:14:42;8.90;;;8.10;;
53040;SDS011;39326;42.650;23.248;2023-06-04T07:17:08;10.90;;;9.90;;
53040;SDS011;39326;42.650;23.248;2023-06-04T07:19:33;10.77;;;9.93;;
53040;SDS011;39326;42.650;23.248;2023-06-04T07:21:58;9.53;;;8.63;;
53040;SDS011;39326;42.650;23.248;2023-06-04T07:24:24;12.63;;;10.00;;
53040;SDS011;39326;42.650;23.248;2023-06-04T07:26:50;10.15;;;9.30;;
53040;SDS011;39326;42.650;23.248;2023-06-04T07:29:15;10.95;;;9.05;;
53040;SDS011;39326;42.650;23.248;2023-06-04T07:31:41;9.93;;;8.93;;
53040;SDS011;39326;42.650;23.248;2023-06-04T07:34:06;9.67;;;8.83;;
53040;SDS011;39326;42.650;23.248;2023-06-04T07:36:32;10.53;;;9.47;;
53040;SDS011;39326;42.650;23.248;2023-06-04T07:38:58;9.70;;;8.80;;
53040;SDS011;39326;42.650;23.248;2023-06-04T07:41:24;10.60;;;9.57;;
53040;SDS011;39326;42.650;23.248;2023-06-04T07:43:51;10.00;;;8.40;;
53040;SDS011;39326;42.650;23.248;2023-06-04T07:46:16;9.83;;;9.03;;
53040;SDS011;39326;42.650;23.248;2023-06-04T07:48:45;9.80;;;9.00;;
53040;SDS011;39326;42.650;23.248;2023-06-04T07:51:10;10.23;;;9.23;;
53040;SDS011;39326;42.650;23.248;2023-06-04T07:53:36;9.33;;;8.50;;
53040;SDS011;39326;42.650;23.248;2023-06-04T07:56:02;9.77;;;8.87;;
53040;SDS011;39326;42.650;23.248;2023-06-04T07:58:28;9.37;;;8.57;;
53040;SDS011;39326;42.650;23.248;2023-06-04T08:00:54;10.03;;;9.23;;
53040;SDS011;39326;42.650;23.248;2023-06-04T08:03:21;9.60;;;8.80;;
53040;SDS011;39326;42.650;23.248;2023-06-04T08:05:46;9.93;;;8.87;;
53040;SDS011;39326;42.650;23.248;2023-06-04T08:08:12;11.27;;;9.75;;
53040;SDS011;39326;42.650;23.248;2023-06-04T08:10:39;11.97;;;10.07;;
53040;SDS011;39326;42.650;23.248;2023-06-04T08:13:04;10.93;;;9.93;;
53040;SDS011;39326;42.650;23.248;2023-06-04T08:15:30;11.27;;;10.15;;
53040;SDS011;39326;42.650;23.248;2023-06-04T08:17:55;10.82;;;9.82;;
53040;SDS011;39326;42.650;23.248;2023-06-04T08:20:21;11.30;;;10.23;;
53040;SDS011;39326;42.650;23.248;2023-06-04T08:22:47;11.38;;;10.32;;
53040;SDS011;39326;42.650;23.248;2023-06-04T08:25:12;11.48;;;10.38;;
53040;SDS011;39326;42.650;23.248;2023-06-04T08:27:39;10.33;;;9.33;;
53040;SDS011;39326;42.650;23.248;2023-06-04T08:30:05;10.77;;;9.87;;
53040;SDS011;39326;42.650;23.248;2023-06-04T08:32:31;13.00;;;11.60;;
53040;SDS011;39326;42.650;23.248;2023-06-04T08:34:56;12.33;;;11.13;;
53040;SDS011;39326;42.650;23.248;2023-06-04T08:37:22;12.87;;;11.77;;
53040;SDS011;39326;42.650;23.248;2023-06-04T08:39:49;12.63;;;11.53;;
53040;SDS011;39326;42.650;23.248;2023-06-04T08:43:00;13.02;;;11.93;;
53040;SDS011;39326;42.650;23.248;2023-06-04T08:45:07;12.77;;;11.68;;
53040;SDS011;39326;42.650;23.248;2023-06-04T08:47:36;12.63;;;11.33;;
53040;SDS011;39326;42.650;23.248;2023-06-04T08:50:03;12.30;;;11.30;;
53040;SDS011;39326;42.650;23.248;2023-06-04T08:52:32;12.80;;;11.70;;
53040;SDS011;39326;42.650;23.248;2023-06-04T08:54:58;11.35;;;10.32;;
53040;SDS011;39326;42.650;23.248;2023-06-04T08:57:24;12.90;;;11.80;;
53040;SDS011;39326;42.650;23.248;2023-06-04T08:59:50;13.03;;;11.73;;
53040;SDS011;39326;42.650;23.248;2023-06-04T09:02:16;13.47;;;12.07;;
53040;SDS011;39326;42.650;23.248;2023-06-04T09:04:43;13.57;;;12.35;;
53040;SDS011;39326;42.650;23.248;2023-06-04T09:07:10;14.40;;;13.05;;
53040;SDS011;39326;42.650;23.248;2023-06-04T09:09:38;14.13;;;12.67;;
53040;SDS011;39326;42.650;23.248;2023-06-04T09:12:05;12.93;;;11.77;;
53040;SDS011;39326;42.650;23.248;2023-06-04T09:14:35;14.55;;;13.27;;
53040;SDS011;39326;42.650;23.248;2023-06-04T09:17:00;15.43;;;13.98;;
53040;SDS011;39326;42.650;23.248;2023-06-04T09:19:26;14.70;;;13.30;;
53040;SDS011;39326;42.650;23.248;2023-06-04T09:21:55;12.60;;;11.48;;
53040;SDS011;39326;42.650;23.248;2023-06-04T09:24:22;12.10;;;10.95;;
53040;SDS011;39326;42.650;23.248;2023-06-04T09:26:49;11.98;;;10.90;;
53040;SDS011;39326;42.650;23.248;2023-06-04T09:29:15;13.10;;;11.82;;
53040;SDS011;39326;42.650;23.248;2023-06-04T09:31:44;12.20;;;10.95;;
53040;SDS011;39326;42.650;23.248;2023-06-04T09:34:10;12.63;;;9.97;;
53040;SDS011;39326;42.650;23.248;2023-06-04T09:36:35;13.40;;;12.20;;
53040;SDS011;39326;42.650;23.248;2023-06-04T09:39:23;13.70;;;12.15;;
53040;SDS011;39326;42.650;23.248;2023-06-04T09:42:00;12.35;;;11.13;;
53040;SDS011;39326;42.650;23.248;2023-06-04T09:44:26;11.77;;;10.75;;
53040;SDS011;39326;42.650;23.248;2023-06-04T09:46:56;11.95;;;10.85;;
53040;SDS011;39326;42.650;23.248;2023-06-04T09:49:22;13.57;;;9.13;;
53040;SDS011;39326;42.650;23.248;2023-06-04T09:51:48;12.35;;;10.88;;
53040;SDS011;39326;42.650;23.248;2023-06-04T09:54:14;10.52;;;9.55;;
53040;SDS011;39326;42.650;23.248;2023-06-04T09:56:40;10.52;;;9.60;;
53040;SDS011;39326;42.650;23.248;2023-06-04T09:59:06;10.07;;;9.07;;
53040;SDS011;39326;42.650;23.248;2023-06-04T10:01:33;11.15;;;10.13;;
53040;SDS011;39326;42.650;23.248;2023-06-04T10:04:03;10.68;;;9.63;;
53040;SDS011;39326;42.650;23.248;2023-06-04T10:06:33;10.65;;;9.55;;
53040;SDS011;39326;42.650;23.248;2023-06-04T10:09:04;11.23;;;10.27;;
53040;SDS011;39326;42.650;23.248;2023-06-04T10:11:33;11.75;;;10.68;;
53040;SDS011;39326;42.650;23.248;2023-06-04T10:14:02;12.73;;;11.32;;
53040;SDS011;39326;42.650;23.248;2023-06-04T10:16:32;13.15;;;10.57;;
53040;SDS011;39326;42.650;23.248;2023-06-04T10:19:00;10.88;;;9.98;;
53040;SDS011;39326;42.650;23.248;2023-06-04T10:21:26;11.68;;;10.75;;
53040;SDS011;39326;42.650;23.248;2023-06-04T10:23:53;11.27;;;10.35;;
53040;SDS011;39326;42.650;23.248;2023-06-04T10:26:18;12.15;;;10.93;;
53040;SDS011;39326;42.650;23.248;2023-06-04T10:28:44;12.00;;;10.95;;
53040;SDS011;39326;42.650;23.248;2023-06-04T10:31:09;10.52;;;9.63;;
53040;SDS011;39326;42.650;23.248;2023-06-04T10:33:36;11.70;;;10.55;;
53040;SDS011;39326;42.650;23.248;2023-06-04T10:36:15;11.73;;;10.63;;
53040;SDS011;39326;42.650;23.248;2023-06-04T10:38:49;10.93;;;9.75;;
53040;SDS011;39326;42.650;23.248;2023-06-04T10:41:17;11.95;;;10.95;;
53040;SDS011;39326;42.650;23.248;2023-06-04T10:43:47;11.80;;;10.63;;
53040;SDS011;39326;42.650;23.248;2023-06-04T10:46:17;10.75;;;9.75;;
53040;SDS011;39326;42.650;23.248;2023-06-04T10:48:50;11.23;;;10.27;;
53040;SDS011;39326;42.650;23.248;2023-06-04T10:51:28;11.25;;;10.23;;
53040;SDS011;39326;42.650;23.248;2023-06-04T10:53:56;11.85;;;10.48;;
53040;SDS011;39326;42.650;23.248;2023-06-04T10:56:26;12.43;;;10.57;;
53040;SDS011;39326;42.650;23.248;2023-06-04T10:58:51;11.85;;;10.65;;
53040;SDS011;39326;42.650;23.248;2023-06-04T11:01:26;12.40;;;11.40;;
53040;SDS011;39326;42.650;23.248;2023-06-04T11:03:53;15.73;;;10.48;;
53040;SDS011;39326;42.650;23.248;2023-06-04T11:06:18;11.80;;;10.43;;
53040;SDS011;39326;42.650;23.248;2023-06-04T11:08:45;10.77;;;9.88;;
53040;SDS011;39326;42.650;23.248;2023-06-04T11:11:11;11.07;;;9.95;;
53040;SDS011;39326;42.650;23.248;2023-06-04T11:13:38;11.63;;;10.45;;
53040;SDS011;39326;42.650;23.248;2023-06-04T11:16:14;9.73;;;8.93;;
53040;SDS011;39326;42.650;23.248;2023-06-04T11:18:43;10.93;;;9.82;;
53040;SDS011;39326;42.650;23.248;2023-06-04T11:21:18;11.13;;;9.90;;
53040;SDS011;39326;42.650;23.248;2023-06-04T11:23:44;10.13;;;9.13;;
53040;SDS011;39326;42.650;23.248;2023-06-04T11:26:10;9.73;;;8.88;;
53040;SDS011;39326;42.650;23.248;2023-06-04T11:28:35;11.07;;;10.18;;
53040;SDS011;39326;42.650;23.248;2023-06-04T11:31:01;11.10;;;10.10;;
53040;SDS011;39326;42.650;23.248;2023-06-04T11:33:29;9.00;;;8.27;;
53040;SDS011;39326;42.650;23.248;2023-06-04T11:35:55;9.65;;;8.65;;
53040;SDS011;39326;42.650;23.248;2023-06-04T11:38:20;10.32;;;9.10;;
53040;SDS011;39326;42.650;23.248;2023-06-04T11:40:58;9.63;;;8.80;;
53040;SDS011;39326;42.650;23.248;2023-06-04T11:43:25;9.82;;;9.02;;
53040;SDS011;39326;42.650;23.248;2023-06-04T11:45:52;9.05;;;8.35;;
53040;SDS011;39326;42.650;23.248;2023-06-04T11:48:18;10.60;;;9.70;;
53040;SDS011;39326;42.650;23.248;2023-06-04T11:50:43;9.23;;;8.52;;
53040;SDS011;39326;42.650;23.248;2023-06-04T11:53:09;9.80;;;8.80;;
53040;SDS011;39326;42.650;23.248;2023-06-04T11:55:34;9.05;;;8.40;;
53040;SDS011;39326;42.650;23.248;2023-06-04T11:58:00;9.20;;;8.30;;
53040;SDS011;39326;42.650;23.248;2023-06-04T12:00:26;9.75;;;8.75;;
53040;SDS011;39326;42.650;23.248;2023-06-04T12:02:54;9.40;;;8.60;;
53040;SDS011;39326;42.650;23.248;2023-06-04T12:05:21;8.95;;;8.15;;
53040;SDS011;39326;42.650;23.248;2023-06-04T12:07:48;9.95;;;9.13;;
53040;SDS011;39326;42.650;23.248;2023-06-04T12:10:20;9.07;;;8.38;;
53040;SDS011;39326;42.650;23.248;2023-06-04T12:12:46;9.13;;;8.52;;
53040;SDS011;39326;42.650;23.248;2023-06-04T12:15:12;9.02;;;8.32;;
53040;SDS011;39326;42.650;23.248;2023-06-04T12:17:51;13.52;;;8.98;;
53040;SDS011;39326;42.650;23.248;2023-06-04T12:20:18;9.18;;;8.32;;
53040;SDS011;39326;42.650;23.248;2023-06-04T12:22:56;9.48;;;8.77;;
53040;SDS011;39326;42.650;23.248;2023-06-04T12:25:25;10.00;;;9.27;;
53040;SDS011;39326;42.650;23.248;2023-06-04T12:27:51;9.82;;;8.93;;
53040;SDS011;39326;42.650;23.248;2023-06-04T12:30:16;9.98;;;9.18;;
53040;SDS011;39326;42.650;23.248;2023-06-04T12:32:42;10.75;;;9.70;;
53040;SDS011;39326;42.650;23.248;2023-06-04T12:35:08;10.10;;;9.30;;
53040;SDS011;39326;42.650;23.248;2023-06-04T12:37:34;10.18;;;9.23;;
53040;SDS011;39326;42.650;23.248;2023-06-04T12:40:00;11.00;;;10.00;;
53040;SDS011;39326;42.650;23.248;2023-06-04T12:42:25;10.57;;;9.70;;
53040;SDS011;39326;42.650;23.248;2023-06-04T12:44:53;10.32;;;9.55;;
53040;SDS011;39326;42.650;23.248;2023-06-04T12:47:18;10.00;;;9.07;;
53040;SDS011;39326;42.650;23.248;2023-06-04T12:49:46;11.00;;;9.98;;
53040;SDS011;39326;42.650;23.248;2023-06-04T12:52:11;10.07;;;9.15;;
53040;SDS011;39326;42.650;23.248;2023-06-04T12:54:39;10.52;;;9.57;;
53040;SDS011;39326;42.650;23.248;2023-06-04T12:57:05;10.90;;;10.00;;
53040;SDS011;39326;42.650;23.248;2023-06-04T12:59:30;10.05;;;9.23;;
53040;SDS011;39326;42.650;23.248;2023-06-04T13:01:56;10.02;;;9.27;;
53040;SDS011;39326;42.650;23.248;2023-06-04T13:04:22;11.00;;;10.15;;
53040;SDS011;39326;42.650;23.248;2023-06-04T13:06:48;11.38;;;10.10;;
53040;SDS011;39326;42.650;23.248;2023-06-04T13:09:14;11.48;;;10.50;;
53040;SDS011;39326;42.650;23.248;2023-06-04T13:11:41;10.43;;;9.63;;
53040;SDS011;39326;42.650;23.248;2023-06-04T13:14:08;10.52;;;9.65;;
53040;SDS011;39326;42.650;23.248;2023-06-04T13:16:34;10.75;;;9.93;;
53040;SDS011;39326;42.650;23.248;2023-06-04T13:19:00;12.45;;;11.45;;
53040;SDS011;39326;42.650;23.248;2023-06-04T13:21:25;12.10;;;11.15;;
53040;SDS011;39326;42.650;23.248;2023-06-04T13:23:51;12.27;;;11.38;;
53040;SDS011;39326;42.650;23.248;2023-06-04T13:26:17;12.60;;;11.70;;
53040;SDS011;39326;42.650;23.248;2023-06-04T13:28:43;12.13;;;11.23;;
53040;SDS011;39326;42.650;23.248;2023-06-04T13:31:08;11.73;;;10.73;;
53040;SDS011;39326;42.650;23.248;2023-06-04T13:33:33;11.25;;;10.45;;
53040;SDS011;39326;42.650;23.248;2023-06-04T13:36:00;11.55;;;10.65;;
53040;SDS011;39326;42.650;23.248;2023-06-04T13:38:27;11.45;;;10.50;;
53040;SDS011;39326;42.650;23.248;2023-06-04T13:40:52;10.52;;;9.82;;
53040;SDS011;39326;42.650;23.248;2023-06-04T13:43:18;12.20;;;11.20;;
53040;SDS011;39326;42.650;23.248;2023-06-04T13:45:43;11.23;;;10.52;;
53040;SDS011;39326;42.650;23.248;2023-06-04T13:48:10;12.52;;;11.25;;
53040;SDS011;39326;42.650;23.248;2023-06-04T13:50:36;11.98;;;10.95;;
53040;SDS011;39326;42.650;23.248;2023-06-04T13:53:02;11.88;;;10.98;;
53040;SDS011;39326;42.650;23.248;2023-06-04T13:55:27;11.85;;;10.95;;
53040;SDS011;39326;42.650;23.248;2023-06-04T13:57:52;11.30;;;10.20;;
53040;SDS011;39326;42.650;23.248;2023-06-04T14:00:18;11.40;;;10.52;;
53040;SDS011;39326;42.650;23.248;2023-06-04T14:02:45;11.82;;;10.90;;
53040;SDS011;39326;42.650;23.248;2023-06-04T14:05:10;10.82;;;10.00;;
53040;SDS011;39326;42.650;23.248;2023-06-04T14:07:36;10.57;;;9.48;;
53040;SDS011;39326;42.650;23.248;2023-06-04T14:10:02;10.77;;;9.93;;
53040;SDS011;39326;42.650;23.248;2023-06-04T14:12:27;10.48;;;9.68;;
53040;SDS011;39326;42.650;23.248;2023-06-04T14:14:53;10.68;;;9.85;;
53040;SDS011;39326;42.650;23.248;2023-06-04T14:17:18;11.85;;;10.80;;
53040;SDS011;39326;42.650;23.248;2023-06-04T14:19:43;10.15;;;9.35;;
53040;SDS011;39326;42.650;23.248;2023-06-04T14:22:10;11.15;;;10.35;;